createdAt,value
2022-10-07T00:01:33.071Z,5.07
2022-10-07T00:04:05.766Z,5.43
2022-10-07T00:06:38.826Z,5.18
2022-10-07T00:09:11.489Z,4.55
2022-10-07T00:11:44.347Z,4.03
2022-10-07T00:14:17.005Z,5.45
2022-10-07T00:16:50.013Z,4.60
2022-10-07T00:19:23.026Z,4.15
2022-10-07T00:21:55.857Z,4.00
2022-10-07T00:24:28.365Z,4.40
2022-10-07T00:27:01.759Z,4.82
2022-10-07T00:29:34.451Z,4.80
2022-10-07T00:32:07.354Z,4.38
2022-10-07T00:34:39.949Z,4.78
2022-10-07T00:37:12.747Z,5.40
2022-10-07T00:39:46.172Z,4.80
2022-10-07T00:42:19.077Z,4.97
2022-10-07T00:44:51.587Z,5.07
2022-10-07T00:47:27.179Z,4.47
2022-10-07T00:50:09.002Z,3.78
2022-10-07T00:52:44.654Z,3.58
2022-10-07T00:55:21.792Z,3.50
2022-10-07T00:57:57.593Z,3.47
2022-10-07T01:00:30.530Z,3.50
2022-10-07T01:03:04.373Z,3.08
2022-10-07T01:05:38.386Z,3.00
2022-10-07T01:08:11.323Z,2.70
2022-10-07T01:11:00.533Z,3.30
2022-10-07T01:13:38.480Z,3.67
2022-10-07T01:16:10.987Z,3.47
2022-10-07T01:19:05.001Z,3.60
2022-10-07T01:22:01.197Z,3.53
2022-10-07T01:24:42.234Z,4.10
2022-10-07T01:27:15.639Z,4.33
2022-10-07T01:29:56.346Z,4.50
2022-10-07T01:32:37.133Z,4.05
2022-10-07T01:35:12.545Z,3.97
2022-10-07T01:37:48.810Z,3.95
2022-10-07T01:40:27.787Z,4.38
2022-10-07T01:43:00.552Z,4.18
2022-10-07T01:45:38.311Z,4.85
2022-10-07T01:48:11.023Z,5.15
2022-10-07T01:50:44.359Z,4.30
2022-10-07T01:53:19.637Z,4.82
2022-10-07T01:55:55.767Z,4.40
2022-10-07T01:58:31.557Z,4.13
2022-10-07T02:01:19.763Z,3.88
2022-10-07T02:03:52.608Z,4.40
2022-10-07T02:06:34.056Z,4.30
2022-10-07T02:09:12.475Z,3.70
2022-10-07T02:11:47.775Z,4.82
2022-10-07T02:14:25.605Z,4.38
2022-10-07T02:17:08.336Z,4.45
2022-10-07T02:19:44.312Z,4.00
2022-10-07T02:22:18.931Z,3.50
2022-10-07T02:24:52.647Z,3.10
2022-10-07T02:27:30.874Z,3.10
2022-10-07T02:30:21.615Z,3.67
2022-10-07T02:32:56.086Z,3.35
2022-10-07T02:35:52.596Z,3.67
2022-10-07T02:38:26.628Z,3.83
2022-10-07T02:41:06.475Z,3.35
2022-10-07T02:43:56.659Z,3.83
2022-10-07T02:46:32.342Z,4.10
2022-10-07T02:49:06.897Z,4.20
2022-10-07T02:51:42.096Z,4.10
2022-10-07T02:54:18.386Z,4.40
2022-10-07T02:56:51.291Z,4.90
2022-10-07T02:59:26.049Z,4.97
2022-10-07T03:02:00.901Z,4.60
2022-10-07T03:04:34.074Z,4.32
2022-10-07T03:07:07.059Z,4.67
2022-10-07T03:09:47.649Z,4.40
2022-10-07T03:12:22.881Z,3.70
2022-10-07T03:14:55.872Z,4.15
2022-10-07T03:17:28.389Z,3.88
2022-10-07T03:20:01.998Z,4.00
2022-10-07T03:22:36.755Z,3.40
2022-10-07T03:25:10.172Z,3.83
2022-10-07T03:27:43.609Z,3.65
2022-10-07T03:30:21.146Z,3.75
2022-10-07T03:32:58.143Z,3.95
2022-10-07T03:35:31.906Z,3.78
2022-10-07T03:38:08.716Z,4.57
2022-10-07T03:40:44.137Z,3.88
2022-10-07T03:43:18.607Z,3.83
2022-10-07T03:45:51.967Z,3.75
2022-10-07T03:48:24.702Z,4.40
2022-10-07T03:50:58.553Z,4.75
2022-10-07T03:53:33.835Z,5.20
2022-10-07T03:56:08.340Z,5.25
2022-10-07T03:58:42.457Z,5.28
2022-10-07T04:01:18.900Z,7.10
2022-10-07T04:04:00.801Z,7.22
2022-10-07T04:06:37.037Z,6.53
2022-10-07T04:09:14.363Z,5.97
2022-10-07T04:11:47.273Z,4.80
2022-10-07T04:14:19.770Z,6.95
2022-10-07T04:16:54.896Z,6.68
2022-10-07T04:19:28.073Z,6.18
2022-10-07T04:22:04.940Z,6.00
2022-10-07T04:24:40.982Z,6.00
2022-10-07T04:27:23.574Z,6.25
2022-10-07T04:30:07.237Z,6.35
2022-10-07T04:32:40.182Z,5.37
2022-10-07T04:35:12.985Z,6.03
2022-10-07T04:37:48.342Z,5.97
2022-10-07T04:40:21.560Z,5.75
2022-10-07T04:43:14.004Z,5.37
2022-10-07T04:45:47.754Z,5.80
2022-10-07T04:48:22.879Z,5.20
2022-10-07T04:50:56.763Z,5.18
2022-10-07T04:53:31.877Z,5.50
2022-10-07T04:56:04.839Z,5.45
2022-10-07T04:58:38.394Z,6.30
2022-10-07T05:01:11.870Z,6.68
2022-10-07T05:03:48.502Z,6.03
2022-10-07T05:06:21.592Z,7.43
2022-10-07T05:08:54.599Z,7.25
2022-10-07T05:11:28.573Z,6.50
2022-10-07T05:14:11.145Z,6.25
2022-10-07T05:16:44.771Z,6.00
2022-10-07T05:19:19.047Z,6.80
2022-10-07T05:21:52.360Z,6.30
2022-10-07T05:24:25.354Z,6.30
2022-10-07T05:26:59.937Z,6.43
2022-10-07T05:29:34.227Z,5.88
2022-10-07T05:32:06.891Z,6.18
2022-10-07T05:34:49.593Z,6.28
2022-10-07T05:37:22.552Z,6.72
2022-10-07T05:39:56.232Z,7.27
2022-10-07T05:42:32.436Z,7.25
2022-10-07T05:45:06.326Z,6.63
2022-10-07T05:47:40.357Z,7.63
2022-10-07T05:50:13.784Z,6.73
2022-10-07T05:52:46.396Z,6.10
2022-10-07T05:55:20.674Z,7.00
2022-10-07T05:57:53.345Z,7.35
2022-10-07T06:00:26.421Z,7.80
2022-10-07T06:02:59.002Z,7.82
2022-10-07T06:05:32.630Z,7.78
2022-10-07T06:08:27.496Z,7.60
2022-10-07T06:11:34.100Z,7.55
2022-10-07T06:14:06.814Z,7.97
2022-10-07T06:16:40.245Z,8.50
2022-10-07T06:19:22.965Z,9.18
2022-10-07T06:21:59.414Z,10.73
2022-10-07T06:24:34.158Z,10.63
2022-10-07T06:27:08.469Z,12.45
2022-10-07T06:29:42.761Z,12.35
2022-10-07T06:32:15.806Z,12.80
2022-10-07T06:34:49.540Z,12.32
2022-10-07T06:37:23.078Z,12.00
2022-10-07T06:39:59.450Z,12.55
2022-10-07T06:42:34.542Z,13.07
2022-10-07T06:45:25.763Z,13.15
2022-10-07T06:48:01.944Z,12.32
2022-10-07T06:50:35.550Z,11.53
2022-10-07T06:53:09.230Z,12.93
2022-10-07T06:55:41.758Z,14.82
2022-10-07T06:58:14.661Z,12.10
2022-10-07T07:00:52.602Z,12.20
2022-10-07T07:03:28.531Z,12.88
2022-10-07T07:06:03.179Z,12.43
2022-10-07T07:08:41.580Z,11.98
2022-10-07T07:11:32.764Z,11.55
2022-10-07T07:14:12.145Z,10.95
2022-10-07T07:16:47.669Z,11.30
2022-10-07T07:19:20.513Z,10.68
2022-10-07T07:21:53.128Z,10.10
2022-10-07T07:24:28.471Z,10.40
2022-10-07T07:27:01.818Z,9.85
2022-10-07T07:29:36.503Z,10.00
2022-10-07T07:32:10.131Z,12.50
2022-10-07T07:34:47.167Z,13.85
2022-10-07T07:37:25.480Z,13.02
2022-10-07T07:40:01.205Z,9.45
2022-10-07T07:42:35.525Z,11.25
2022-10-07T07:45:09.191Z,10.50
2022-10-07T07:47:42.515Z,9.70
2022-10-07T07:50:16.155Z,9.88
2022-10-07T07:52:48.890Z,10.20
2022-10-07T07:55:22.916Z,10.13
2022-10-07T07:57:55.855Z,8.93
2022-10-07T08:00:28.763Z,8.90
2022-10-07T08:03:09.463Z,9.68
2022-10-07T08:05:42.753Z,10.10
2022-10-07T08:08:15.356Z,10.13
2022-10-07T08:10:51.941Z,9.75
2022-10-07T08:13:25.177Z,10.48
2022-10-07T08:15:58.128Z,11.00
2022-10-07T08:18:35.198Z,10.17
2022-10-07T08:21:08.671Z,9.23
2022-10-07T08:23:42.155Z,7.72
2022-10-07T08:26:15.355Z,9.02
2022-10-07T08:28:49.497Z,8.40
2022-10-07T08:31:23.195Z,8.70
2022-10-07T08:33:59.690Z,8.82
2022-10-07T08:36:34.009Z,9.67
2022-10-07T08:39:07.111Z,9.15
2022-10-07T08:42:00.580Z,8.27
2022-10-07T08:44:37.294Z,7.80
2022-10-07T08:47:16.371Z,8.80
2022-10-07T08:49:50.168Z,7.22
2022-10-07T08:52:38.508Z,7.90
2022-10-07T08:55:30.082Z,8.02
2022-10-07T08:58:21.351Z,7.77
2022-10-07T09:00:59.663Z,8.07
2022-10-07T09:03:38.745Z,8.18
2022-10-07T09:06:14.344Z,7.50
2022-10-07T09:08:52.615Z,8.07
2022-10-07T09:11:26.291Z,7.25
2022-10-07T09:14:19.596Z,7.63
2022-10-07T09:16:55.335Z,7.38
2022-10-07T09:19:36.948Z,7.13
2022-10-07T09:22:23.272Z,6.72
2022-10-07T09:25:00.330Z,6.40
2022-10-07T09:27:33.823Z,6.85
2022-10-07T09:30:07.003Z,7.38
2022-10-07T09:32:42.830Z,7.10
2022-10-07T09:35:17.888Z,7.72
2022-10-07T09:37:55.499Z,7.28
2022-10-07T09:40:28.288Z,7.57
2022-10-07T09:43:01.367Z,7.67
2022-10-07T09:45:35.355Z,8.02
2022-10-07T09:48:17.352Z,7.32
2022-10-07T09:50:50.326Z,7.50
2022-10-07T09:53:27.224Z,7.53
2022-10-07T09:56:01.242Z,8.18
2022-10-07T09:58:33.885Z,8.02
2022-10-07T10:01:10.824Z,7.95
2022-10-07T10:03:43.550Z,8.02
2022-10-07T10:06:22.119Z,8.67
2022-10-07T10:08:56.564Z,8.18
2022-10-07T10:11:29.565Z,7.97
2022-10-07T10:14:22.331Z,7.40
2022-10-07T10:16:55.269Z,7.97
2022-10-07T10:19:28.081Z,7.97
2022-10-07T10:22:01.306Z,8.13
2022-10-07T10:24:52.247Z,8.25
2022-10-07T10:27:30.598Z,8.15
2022-10-07T10:30:04.767Z,7.80
2022-10-07T10:32:50.477Z,8.15
2022-10-07T10:35:30.145Z,7.85
2022-10-07T10:38:21.454Z,7.25
2022-10-07T10:40:54.029Z,7.03
2022-10-07T10:43:26.846Z,7.45
2022-10-07T10:46:05.579Z,6.78
2022-10-07T10:48:47.597Z,6.50
2022-10-07T10:51:32.223Z,6.67
2022-10-07T10:54:31.823Z,7.00
2022-10-07T10:57:15.220Z,6.63
2022-10-07T11:00:04.381Z,6.60
2022-10-07T11:02:37.487Z,6.53
2022-10-07T11:05:15.354Z,6.55
2022-10-07T11:07:48.144Z,6.43
2022-10-07T11:10:21.046Z,7.30
2022-10-07T11:13:01.821Z,7.25
2022-10-07T11:15:43.004Z,6.97
2022-10-07T11:18:24.654Z,6.38
2022-10-07T11:20:59.729Z,6.90
2022-10-07T11:23:44.724Z,6.68
2022-10-07T11:26:23.274Z,6.68
2022-10-07T11:28:56.466Z,6.47
2022-10-07T11:31:33.772Z,6.78
2022-10-07T11:34:25.255Z,5.22
2022-10-07T11:37:08.793Z,5.70
2022-10-07T11:39:41.349Z,5.97
2022-10-07T11:42:16.883Z,5.38
2022-10-07T11:44:55.728Z,6.22
2022-10-07T11:47:35.077Z,6.05
2022-10-07T11:50:08.173Z,6.30
2022-10-07T11:52:44.646Z,6.18
2022-10-07T11:55:20.595Z,6.28
2022-10-07T11:57:57.107Z,6.60
2022-10-07T12:00:32.023Z,6.50
2022-10-07T12:03:20.200Z,6.28
2022-10-07T12:05:55.957Z,6.47
2022-10-07T12:08:32.067Z,5.93
2022-10-07T12:11:15.206Z,6.35
2022-10-07T12:13:50.023Z,6.07
2022-10-07T12:16:28.587Z,6.10
2022-10-07T12:19:07.741Z,6.18
2022-10-07T12:21:59.760Z,6.07
2022-10-07T12:24:36.654Z,5.65
2022-10-07T12:27:13.946Z,6.88
2022-10-07T12:29:49.158Z,6.32
2022-10-07T12:32:40.570Z,5.65
2022-10-07T12:35:42.273Z,6.30
2022-10-07T12:38:17.136Z,6.78
2022-10-07T12:41:08.858Z,6.53
2022-10-07T12:43:46.289Z,6.50
2022-10-07T12:46:20.878Z,6.25
2022-10-07T12:48:53.387Z,6.60
2022-10-07T12:51:39.702Z,5.95
2022-10-07T12:54:23.143Z,5.95
2022-10-07T12:56:57.509Z,5.60
2022-10-07T12:59:49.921Z,5.78
2022-10-07T13:02:31.765Z,5.57
2022-10-07T13:05:06.095Z,5.53
2022-10-07T13:08:00.201Z,6.82
2022-10-07T13:10:51.751Z,5.35
2022-10-07T13:13:44.751Z,5.60
2022-10-07T13:16:38.879Z,5.20
2022-10-07T13:19:30.789Z,5.10
2022-10-07T13:22:11.729Z,4.50
2022-10-07T13:24:54.084Z,4.80
2022-10-07T13:27:28.131Z,4.78
2022-10-07T13:30:02.077Z,4.28
2022-10-07T13:32:36.577Z,4.80
2022-10-07T13:35:30.525Z,4.47
2022-10-07T13:38:03.124Z,4.28
2022-10-07T13:40:36.279Z,4.30
2022-10-07T13:43:09.356Z,4.73
2022-10-07T13:45:45.409Z,4.25
2022-10-07T13:48:23.563Z,3.53
2022-10-07T13:50:58.938Z,4.20
2022-10-07T13:53:34.377Z,3.90
2022-10-07T13:56:19.653Z,3.93
2022-10-07T13:58:55.487Z,3.83
2022-10-07T14:01:30.037Z,3.70
2022-10-07T14:04:02.635Z,3.70
2022-10-07T14:06:42.029Z,3.43
2022-10-07T14:09:32.934Z,4.33
2022-10-07T14:12:08.631Z,4.15
2022-10-07T14:14:43.332Z,4.00
2022-10-07T14:17:25.075Z,4.03
2022-10-07T14:19:59.180Z,3.93
2022-10-07T14:22:36.267Z,3.75
2022-10-07T14:25:29.107Z,3.58
2022-10-07T14:28:20.313Z,3.93
2022-10-07T14:31:23.935Z,4.18
2022-10-07T14:34:15.488Z,3.50
2022-10-07T14:37:06.530Z,4.77
2022-10-07T14:39:40.854Z,3.97
2022-10-07T14:42:32.605Z,4.20
2022-10-07T14:45:09.426Z,3.90
2022-10-07T14:47:47.398Z,4.03
2022-10-07T14:50:20.312Z,3.80
2022-10-07T14:52:53.285Z,3.97
2022-10-07T14:55:28.154Z,4.00
2022-10-07T14:58:01.439Z,4.37
2022-10-07T15:00:39.315Z,3.92
2022-10-07T15:03:12.764Z,4.25
2022-10-07T15:05:47.531Z,3.85
2022-10-07T15:08:21.691Z,3.42
2022-10-07T15:10:54.637Z,3.20
2022-10-07T15:13:28.593Z,3.85
2022-10-07T15:16:02.138Z,3.83
2022-10-07T15:18:34.790Z,3.80
2022-10-07T15:21:08.957Z,4.13
2022-10-07T15:23:41.610Z,4.28
2022-10-07T15:26:15.046Z,4.20
2022-10-07T15:28:50.707Z,3.30
2022-10-07T15:31:25.073Z,2.95
2022-10-07T15:33:58.232Z,3.30
2022-10-07T15:36:32.368Z,3.22
2022-10-07T15:39:05.304Z,3.90
2022-10-07T15:41:39.536Z,3.22
2022-10-07T15:44:30.474Z,4.00
2022-10-07T15:47:03.498Z,3.53
2022-10-07T15:49:36.764Z,2.72
2022-10-07T15:52:11.891Z,3.03
2022-10-07T15:54:46.772Z,2.53
2022-10-07T15:57:19.927Z,3.00
2022-10-07T15:59:54.999Z,4.38
2022-10-07T16:02:28.233Z,3.50
2022-10-07T16:05:01.280Z,5.20
2022-10-07T16:07:35.484Z,3.60
2022-10-07T16:10:12.700Z,5.28
2022-10-07T16:12:46.622Z,6.80
2022-10-07T16:15:19.861Z,8.20
2022-10-07T16:17:53.575Z,7.00
2022-10-07T16:20:26.419Z,6.15
2022-10-07T16:22:59.211Z,8.18
2022-10-07T16:25:31.846Z,7.07
2022-10-07T16:28:23.274Z,6.68
2022-10-07T16:30:55.944Z,8.40
2022-10-07T16:33:30.175Z,9.73
2022-10-07T16:36:10.099Z,11.20
2022-10-07T16:38:43.203Z,12.80
2022-10-07T16:41:15.816Z,11.93
2022-10-07T16:43:50.256Z,7.63
2022-10-07T16:46:23.313Z,6.73
2022-10-07T16:48:56.452Z,6.35
2022-10-07T16:51:30.332Z,4.10
2022-10-07T16:54:13.368Z,4.15
2022-10-07T16:56:48.326Z,4.15
2022-10-07T16:59:23.437Z,4.15
2022-10-07T17:01:57.142Z,5.83
2022-10-07T17:04:30.013Z,9.73
2022-10-07T17:07:06.315Z,14.35
2022-10-07T17:09:39.354Z,22.02
2022-10-07T17:12:12.002Z,19.50
2022-10-07T17:14:45.462Z,14.15
2022-10-07T17:17:19.349Z,10.75
2022-10-07T17:19:52.788Z,12.37
2022-10-07T17:22:25.311Z,14.02
2022-10-07T17:25:00.094Z,8.25
2022-10-07T17:27:32.669Z,6.47
2022-10-07T17:30:06.319Z,5.82
2022-10-07T17:32:39.118Z,5.18
2022-10-07T17:35:12.254Z,4.78
2022-10-07T17:37:44.959Z,5.70
2022-10-07T17:40:38.554Z,4.78
2022-10-07T17:43:24.343Z,4.30
2022-10-07T17:46:00.466Z,4.77
2022-10-07T17:48:34.527Z,4.10
2022-10-07T17:51:07.751Z,4.60
2022-10-07T17:53:40.344Z,4.25
2022-10-07T17:56:14.660Z,4.82
2022-10-07T17:58:48.997Z,4.40
2022-10-07T18:01:27.537Z,4.95
2022-10-07T18:04:01.342Z,5.78
2022-10-07T18:06:35.957Z,5.90
2022-10-07T18:09:09.518Z,5.13
2022-10-07T18:12:01.025Z,6.70
2022-10-07T18:14:54.041Z,5.43
2022-10-07T18:17:27.685Z,5.50
2022-10-07T18:20:01.424Z,5.10
2022-10-07T18:22:37.483Z,5.50
2022-10-07T18:25:12.147Z,5.07
2022-10-07T18:27:45.257Z,4.50
2022-10-07T18:30:17.973Z,5.10
2022-10-07T18:32:50.954Z,5.13
2022-10-07T18:35:23.665Z,4.50
2022-10-07T18:37:56.601Z,4.97
2022-10-07T18:40:29.183Z,5.32
2022-10-07T18:43:02.097Z,5.25
2022-10-07T18:45:37.652Z,5.05
2022-10-07T18:48:11.644Z,5.57
2022-10-07T18:50:50.317Z,4.95
2022-10-07T18:53:23.229Z,5.27
2022-10-07T18:55:59.636Z,4.70
2022-10-07T18:58:36.725Z,4.75
2022-10-07T19:01:13.639Z,5.30
2022-10-07T19:03:46.987Z,5.10
2022-10-07T19:06:21.572Z,5.35
2022-10-07T19:08:57.223Z,6.30
2022-10-07T19:11:30.847Z,6.30
2022-10-07T19:14:04.034Z,5.63
2022-10-07T19:16:38.145Z,7.07
2022-10-07T19:19:14.015Z,6.97
2022-10-07T19:21:48.015Z,8.30
2022-10-07T19:24:21.270Z,6.78
2022-10-07T19:26:56.452Z,6.43
2022-10-07T19:29:29.679Z,7.60
2022-10-07T19:32:07.154Z,7.05
2022-10-07T19:34:41.080Z,6.45
2022-10-07T19:37:16.760Z,5.50
2022-10-07T19:39:49.673Z,5.80
2022-10-07T19:42:22.331Z,4.90
2022-10-07T19:44:55.153Z,5.22
2022-10-07T19:47:27.927Z,4.55
2022-10-07T19:50:02.066Z,4.75
2022-10-07T19:52:34.626Z,4.28
2022-10-07T19:55:07.742Z,4.75
2022-10-07T19:57:40.304Z,4.18
2022-10-07T20:00:13.359Z,5.05
2022-10-07T20:02:48.480Z,4.00
2022-10-07T20:05:21.570Z,4.50
2022-10-07T20:07:54.301Z,4.22
2022-10-07T20:10:27.491Z,4.18
2022-10-07T20:13:00.031Z,3.92
2022-10-07T20:15:33.548Z,3.83
2022-10-07T20:18:06.408Z,3.72
2022-10-07T20:20:39.602Z,4.57
2022-10-07T20:23:12.128Z,4.30
2022-10-07T20:25:47.016Z,4.20
2022-10-07T20:28:19.856Z,4.30
2022-10-07T20:30:52.657Z,4.57
2022-10-07T20:33:25.105Z,3.80
2022-10-07T20:36:01.552Z,4.25
2022-10-07T20:38:55.629Z,4.05
2022-10-07T20:41:47.302Z,4.53
2022-10-07T20:44:20.428Z,4.53
2022-10-07T20:46:53.395Z,5.20
2022-10-07T20:49:29.463Z,4.97
2022-10-07T20:52:05.411Z,4.50
2022-10-07T20:54:37.979Z,4.13
2022-10-07T20:57:12.462Z,4.45
2022-10-07T20:59:45.078Z,4.70
2022-10-07T21:02:19.888Z,5.25
2022-10-07T21:04:52.411Z,4.97
2022-10-07T21:07:25.364Z,4.82
2022-10-07T21:09:59.071Z,5.00
2022-10-07T21:12:32.836Z,4.55
2022-10-07T21:15:05.586Z,4.75
2022-10-07T21:17:39.093Z,4.90
2022-10-07T21:20:11.592Z,5.82
2022-10-07T21:22:44.632Z,11.45
2022-10-07T21:25:18.484Z,5.32
2022-10-07T21:27:51.335Z,4.75
2022-10-07T21:30:23.892Z,4.20
2022-10-07T21:32:58.905Z,4.63
2022-10-07T21:35:31.738Z,4.40
2022-10-07T21:38:04.634Z,5.10
2022-10-07T21:40:37.207Z,5.25
2022-10-07T21:43:10.155Z,5.10
2022-10-07T21:45:42.705Z,4.70
2022-10-07T21:48:15.571Z,4.00
2022-10-07T21:50:55.392Z,4.50
2022-10-07T21:53:28.314Z,4.68
2022-10-07T21:56:08.668Z,5.13
2022-10-07T21:58:42.660Z,4.60
2022-10-07T22:01:18.530Z,4.25
2022-10-07T22:03:55.451Z,4.07
2022-10-07T22:06:47.423Z,4.15
2022-10-07T22:09:21.341Z,3.85
2022-10-07T22:11:54.024Z,4.45
2022-10-07T22:14:27.935Z,4.30
2022-10-07T22:17:00.584Z,4.30
2022-10-07T22:19:33.565Z,4.17
2022-10-07T22:22:06.892Z,4.18
2022-10-07T22:24:39.734Z,4.85
2022-10-07T22:27:12.364Z,4.90
2022-10-07T22:29:45.296Z,4.40
2022-10-07T22:32:17.915Z,4.45
2022-10-07T22:35:09.118Z,4.40
2022-10-07T22:37:41.897Z,4.97
2022-10-07T22:40:14.850Z,4.72
2022-10-07T22:42:47.527Z,4.72
2022-10-07T22:45:20.787Z,4.87
2022-10-07T22:47:53.421Z,4.88
2022-10-07T22:50:26.418Z,4.35
2022-10-07T22:52:58.902Z,4.53
2022-10-07T22:55:33.439Z,4.60
2022-10-07T22:58:06.625Z,4.65
2022-10-07T23:04:21.832Z,4.30
2022-10-07T23:06:55.236Z,4.88
2022-10-07T23:09:27.797Z,5.72
2022-10-07T23:12:01.728Z,4.80
2022-10-07T23:14:34.287Z,4.72
2022-10-07T23:17:08.728Z,5.95
2022-10-07T23:19:42.347Z,5.68
2022-10-07T23:22:15.236Z,5.38
2022-10-07T23:24:47.766Z,4.93
2022-10-07T23:27:20.795Z,6.13
2022-10-07T23:29:53.258Z,5.57
2022-10-07T23:32:27.120Z,5.10
2022-10-07T23:35:00.248Z,4.70
2022-10-07T23:37:34.164Z,4.38
2022-10-07T23:40:07.077Z,4.80
2022-10-07T23:42:40.171Z,4.27
2022-10-07T23:45:13.661Z,4.50
2022-10-07T23:47:46.646Z,5.05
2022-10-07T23:50:20.991Z,4.93
2022-10-07T23:52:53.895Z,5.35
2022-10-07T23:55:26.454Z,5.10
2022-10-07T23:57:59.384Z,4.70
